Cic Pride — H9SQ — position and weather

sailwx.info

Track history (hours):
 
Tides and Currents Weather Stations Pressure Air Temp Water Temp Dewpoint Dewpoint Depression Visibility Wind Speed Wind Dir Waves Ship Positions

Cic Pride

Last reported at 2016-May-22 21:04 UTC. Time now 2016-May-30 20:26 UTC.
Position N 02°12' E 101°59'.

Length 289 m; draft 10.6 m.

Type: Cargo ship. MMSI: 351111000.

Date/timePositionNaut miles runAvg speedWind from/ knotsBaromVisibWave heightAir tempDewpointWater temp
2016-May-22 21:04N 02°12' E 101°59'611.0
2016-May-22 20:33N 02°08' E 102°03'1211.5
2016-May-22 19:32N 02°00' E 102°12'1111.4
2016-May-22 18:33N 01°54' E 102°21'1111.4
2016-May-22 17:33N 01°49' E 102°32'1110.8
2016-May-22 16:33N 01°45' E 102°42'10 9.6
2016-May-22 15:29N 01°41' E 102°51'56 9.5
2016-May-22 09:32N 01°11' E 103°39'9 9.5
2016-May-22 08:33N 01°11' E 103°48'8 8.0
2016-May-22 07:33N 01°14' E 103°55'2 1.9
2016-May-22 06:17N 01°16' E 103°56'0 0.0
2016-May-22 05:29N 01°16' E 103°56'0 0.0
2016-May-22 04:23N 01°16' E 103°56'0 0.0
2016-May-22 03:23N 01°16' E 103°56'0 0.0
2016-May-22 01:17N 01°16' E 103°56'0 0.0
2016-May-22 00:29N 01°16' E 103°56'0 0.1
2016-May-21 23:17N 01°16' E 103°56'0 0.0
2016-May-21 21:23N 01°16' E 103°56'0 0.0
2016-May-21 20:08N 01°16' E 103°56'0 0.0
2016-May-21 19:29N 01°16' E 103°56'0 0.0
2016-May-21 18:32N 01°16' E 103°56'0 0.0
2016-May-21 13:17N 01°16' E 103°56'0 0.1
2016-May-21 12:29N 01°16' E 103°56'0 0.1
2016-May-21 11:23N 01°16' E 103°56'0 0.1
2016-May-21 10:26N 01°16' E 103°56'0 0.1
2016-May-21 09:17N 01°16' E 103°56'0 0.1
2016-May-21 08:29N 01°16' E 103°56'0 0.0
2016-May-21 07:08N 01°16' E 103°56'0 0.0
2016-May-21 06:29N 01°16' E 103°56'0 0.0
2016-May-21 05:23N 01°16' E 103°56'0 0.1
2016-May-21 04:17N 01°16' E 103°56'0 0.0
2016-May-21 03:29N 01°16' E 103°56'0 0.0
2016-May-21 02:29N 01°16' E 103°56'0 0.1
2016-May-21 01:17N 01°16' E 103°56'0 0.1
2016-May-21 00:32N 01°16' E 103°56'0 0.1
2016-May-20 23:26N 01°16' E 103°56'0 0.0
2016-May-20 21:08N 01°16' E 103°56'0 0.1
2016-May-20 20:29N 01°16' E 103°56'0 0.0
2016-May-20 19:29N 01°16' E 103°56'0 0.0
2016-May-20 17:29N 01°16' E 103°56'0 0.0
2016-May-20 16:29N 01°16' E 103°56'0 0.2
2016-May-20 15:26N 01°16' E 103°56'0 0.1
2016-May-20 13:29N 01°16' E 103°56'0 0.0
2016-May-20 12:29N 01°16' E 103°56'0 0.0
2016-May-20 11:29N 01°16' E 103°56'0 0.2
2016-May-20 10:26N 01°16' E 103°56'0 0.1
2016-May-20 09:05N 01°16' E 103°56'0 0.0
2016-May-20 08:29N 01°16' E 103°56'0 0.0
2016-May-20 07:14N 01°16' E 103°56'0 0.1
2016-May-20 06:20N 01°16' E 103°56'0 0.0
2016-May-20 04:26N 01°16' E 103°56'0 0.1
2016-May-20 03:33N 01°16' E 103°56'2 2.3
2016-May-20 02:33N 01°16' E 103°58'5 4.6
2016-May-20 01:33N 01°16' E 104°03'  
Track history (hours):
 
Tides and Currents Weather Stations Pressure Air Temp Water Temp Dewpoint Dewpoint Depression Visibility Wind Speed Wind Dir Waves Ship Positions

Cic Pride

Last reported at 2016-May-22 21:04 UTC. Time now 2016-May-30 20:26 UTC.
Position N 02°12' E 101°59'.

Length 289 m; draft 10.6 m.

Type: Cargo ship. MMSI: 351111000.

Date/timePositionNaut miles runAvg speedWind from/ knotsBaromVisibWave heightAir tempDewpointWater temp
2016-May-22 21:04N 02°12' E 101°59'611.0
2016-May-22 20:33N 02°08' E 102°03'1211.5
2016-May-22 19:32N 02°00' E 102°12'1111.4
2016-May-22 18:33N 01°54' E 102°21'1111.4
2016-May-22 17:33N 01°49' E 102°32'1110.8
2016-May-22 16:33N 01°45' E 102°42'10 9.6
2016-May-22 15:29N 01°41' E 102°51'56 9.5
2016-May-22 09:32N 01°11' E 103°39'9 9.5
2016-May-22 08:33N 01°11' E 103°48'8 8.0
2016-May-22 07:33N 01°14' E 103°55'2 1.9
2016-May-22 06:17N 01°16' E 103°56'0 0.0
2016-May-22 05:29N 01°16' E 103°56'0 0.0
2016-May-22 04:23N 01°16' E 103°56'0 0.0
2016-May-22 03:23N 01°16' E 103°56'0 0.0
2016-May-22 01:17N 01°16' E 103°56'0 0.0
2016-May-22 00:29N 01°16' E 103°56'0 0.1
2016-May-21 23:17N 01°16' E 103°56'0 0.0
2016-May-21 21:23N 01°16' E 103°56'0 0.0
2016-May-21 20:08N 01°16' E 103°56'0 0.0
2016-May-21 19:29N 01°16' E 103°56'0 0.0
2016-May-21 18:32N 01°16' E 103°56'0 0.0
2016-May-21 13:17N 01°16' E 103°56'0 0.1
2016-May-21 12:29N 01°16' E 103°56'0 0.1
2016-May-21 11:23N 01°16' E 103°56'0 0.1
2016-May-21 10:26N 01°16' E 103°56'0 0.1
2016-May-21 09:17N 01°16' E 103°56'0 0.1
2016-May-21 08:29N 01°16' E 103°56'0 0.0
2016-May-21 07:08N 01°16' E 103°56'0 0.0
2016-May-21 06:29N 01°16' E 103°56'0 0.0
2016-May-21 05:23N 01°16' E 103°56'0 0.1
2016-May-21 04:17N 01°16' E 103°56'0 0.0
2016-May-21 03:29N 01°16' E 103°56'0 0.0
2016-May-21 02:29N 01°16' E 103°56'0 0.1
2016-May-21 01:17N 01°16' E 103°56'0 0.1
2016-May-21 00:32N 01°16' E 103°56'0 0.1
2016-May-20 23:26N 01°16' E 103°56'0 0.0
2016-May-20 21:08N 01°16' E 103°56'0 0.1
2016-May-20 20:29N 01°16' E 103°56'0 0.0
2016-May-20 19:29N 01°16' E 103°56'0 0.0
2016-May-20 17:29N 01°16' E 103°56'0 0.0
2016-May-20 16:29N 01°16' E 103°56'0 0.2
2016-May-20 15:26N 01°16' E 103°56'0 0.1
2016-May-20 13:29N 01°16' E 103°56'0 0.0
2016-May-20 12:29N 01°16' E 103°56'0 0.0
2016-May-20 11:29N 01°16' E 103°56'0 0.2
2016-May-20 10:26N 01°16' E 103°56'0 0.1
2016-May-20 09:05N 01°16' E 103°56'0 0.0
2016-May-20 08:29N 01°16' E 103°56'0 0.0
2016-May-20 07:14N 01°16' E 103°56'0 0.1
2016-May-20 06:20N 01°16' E 103°56'0 0.0
2016-May-20 04:26N 01°16' E 103°56'0 0.1
2016-May-20 03:33N 01°16' E 103°56'2 2.3
2016-May-20 02:33N 01°16' E 103°58'5 4.6
2016-May-20 01:33N 01°16' E 104°03'  

Dump ship's entire track history